createdAt,value
2022-11-03T00:01:55.529Z,101545.34
2022-11-03T00:04:25.146Z,101545.91
2022-11-03T00:06:56.728Z,101534.59
2022-11-03T00:09:27.709Z,101539.34
2022-11-03T00:11:56.740Z,101530.81
2022-11-03T00:14:25.846Z,101534.25
2022-11-03T00:16:55.686Z,101528.25
2022-11-03T00:19:24.771Z,101533.97
2022-11-03T00:21:55.211Z,101527.00
2022-11-03T00:24:24.677Z,101533.72
2022-11-03T00:26:53.643Z,101525.47
2022-11-03T00:29:22.653Z,101525.81
2022-11-03T00:31:51.783Z,101530.47
2022-11-03T00:34:20.715Z,101525.72
2022-11-03T00:36:49.938Z,101523.69
2022-11-03T00:39:20.394Z,101522.75
2022-11-03T00:41:49.362Z,101517.59
2022-11-03T00:44:18.299Z,101523.25
2022-11-03T00:46:47.384Z,101519.81
2022-11-03T00:49:16.593Z,101522.41
2022-11-03T00:51:45.553Z,101527.97
2022-11-03T00:54:14.562Z,101519.81
2022-11-03T00:56:45.447Z,101507.28
2022-11-03T00:59:14.526Z,101507.09
2022-11-03T01:01:47.820Z,101488.38
2022-11-03T01:04:35.755Z,101501.38
2022-11-03T01:07:07.786Z,101484.66
2022-11-03T01:09:40.678Z,101493.13
2022-11-03T01:12:14.491Z,101485.72
2022-11-03T01:14:46.461Z,101484.44
2022-11-03T01:17:18.708Z,101475.44
2022-11-03T01:19:48.686Z,101487.25
2022-11-03T01:22:19.579Z,101480.56
2022-11-03T01:24:49.486Z,101475.22
2022-11-03T01:27:22.602Z,101477.91
2022-11-03T01:29:52.087Z,101474.59
2022-11-03T01:32:21.088Z,101480.84
2022-11-03T01:34:50.026Z,101476.41
2022-11-03T01:37:19.368Z,101470.78
2022-11-03T01:39:48.419Z,101475.16
2022-11-03T01:42:18.639Z,101457.41
2022-11-03T01:44:50.478Z,101450.91
2022-11-03T01:47:28.950Z,101446.72
2022-11-03T01:50:04.853Z,101435.53
2022-11-03T01:52:39.273Z,101438.19
2022-11-03T01:55:14.982Z,101430.19
2022-11-03T01:57:56.164Z,101418.66
2022-11-03T02:00:25.259Z,101427.22
2022-11-03T02:02:55.702Z,101425.59
2022-11-03T02:05:28.721Z,101423.13
2022-11-03T02:10:41.394Z,101406.06
2022-11-03T02:13:19.926Z,101406.94
2022-11-03T02:15:51.317Z,101413.19
2022-11-03T02:18:25.831Z,101415.31
2022-11-03T02:21:09.945Z,101414.59
2022-11-03T02:23:49.206Z,101401.94
2022-11-03T02:26:20.260Z,101405.66
2022-11-03T02:28:49.442Z,101401.56
2022-11-03T02:31:28.666Z,101397.50
2022-11-03T02:34:07.489Z,101393.97
2022-11-03T02:36:47.024Z,101390.75
2022-11-03T02:39:22.834Z,101404.34
2022-11-03T02:41:58.735Z,101395.34
2022-11-03T02:44:30.117Z,101381.41
2022-11-03T02:47:03.011Z,101384.28
2022-11-03T02:49:32.175Z,101394.06
2022-11-03T02:52:02.277Z,101390.16
2022-11-03T02:54:38.593Z,101399.56
2022-11-03T02:57:18.664Z,101378.22
2022-11-03T02:59:54.991Z,101373.06
2022-11-03T03:02:34.829Z,101375.34
2022-11-03T03:05:10.329Z,101382.63
2022-11-03T03:07:46.365Z,101378.63
2022-11-03T03:10:19.574Z,101374.31
2022-11-03T03:12:54.133Z,101374.38
2022-11-03T03:15:35.948Z,101365.91
2022-11-03T03:18:21.586Z,101360.06
2022-11-03T03:21:01.465Z,101364.56
2022-11-03T03:23:37.605Z,101360.97
2022-11-03T03:26:16.177Z,101367.09
2022-11-03T03:28:54.991Z,101353.59
2022-11-03T03:31:27.996Z,101357.63
2022-11-03T03:34:04.916Z,101354.34
2022-11-03T03:36:45.020Z,101345.75
2022-11-03T03:39:18.316Z,101340.34
2022-11-03T03:41:50.123Z,101331.63
2022-11-03T03:44:22.476Z,101324.09
2022-11-03T03:46:59.130Z,101327.19
2022-11-03T03:49:28.509Z,101314.72
2022-11-03T03:51:58.042Z,101308.59
2022-11-03T03:54:27.168Z,101318.66
2022-11-03T03:57:02.761Z,101326.16
2022-11-03T03:59:33.403Z,101316.25
2022-11-03T04:02:03.255Z,101319.09
2022-11-03T04:04:32.257Z,101320.69
2022-11-03T04:07:18.612Z,101321.50
2022-11-03T04:09:47.694Z,101326.50
2022-11-03T04:12:34.218Z,101321.31
2022-11-03T04:15:22.988Z,101330.97
2022-11-03T04:18:10.523Z,101325.84
2022-11-03T04:20:56.866Z,101325.56
2022-11-03T04:23:25.912Z,101318.19
2022-11-03T04:25:58.093Z,101319.59
2022-11-03T04:28:28.620Z,101319.59
2022-11-03T04:31:01.415Z,101317.16
2022-11-03T04:33:31.434Z,101314.56
2022-11-03T04:36:04.719Z,101308.69
2022-11-03T04:38:33.757Z,101303.50
2022-11-03T04:41:03.819Z,101307.03
2022-11-03T04:43:36.791Z,101300.16
2022-11-03T04:46:10.769Z,101306.16
2022-11-03T04:48:40.356Z,101294.41
2022-11-03T04:51:21.738Z,101281.69
2022-11-03T04:53:56.041Z,101279.09
2022-11-03T04:56:26.750Z,101276.19
2022-11-03T04:58:55.997Z,101256.88
2022-11-03T05:01:27.476Z,101256.78
2022-11-03T05:03:57.414Z,101251.00
2022-11-03T05:06:31.055Z,101253.28
2022-11-03T05:09:07.102Z,101245.47
2022-11-03T05:11:39.567Z,101241.06
2022-11-03T05:14:17.615Z,101235.66
2022-11-03T05:16:48.671Z,101245.66
2022-11-03T05:19:24.164Z,101243.34
2022-11-03T05:21:56.283Z,101240.00
2022-11-03T05:24:27.129Z,101228.78
2022-11-03T05:26:59.343Z,101233.34
2022-11-03T05:29:37.036Z,101235.66
2022-11-03T05:32:16.229Z,101234.06
2022-11-03T05:34:48.399Z,101229.22
2022-11-03T05:37:36.750Z,101225.78
2022-11-03T05:40:24.280Z,101225.34
2022-11-03T05:42:58.736Z,101226.31
2022-11-03T05:45:34.544Z,101232.66
2022-11-03T05:48:15.632Z,101225.13
2022-11-03T05:50:48.363Z,101227.19
2022-11-03T05:53:32.380Z,101222.38
2022-11-03T05:56:05.191Z,101221.53
2022-11-03T05:58:41.065Z,101221.16
2022-11-03T06:01:20.491Z,101220.13
2022-11-03T06:03:52.036Z,101226.88
2022-11-03T06:06:32.164Z,101216.19
2022-11-03T06:09:04.972Z,101215.53
2022-11-03T06:11:38.721Z,101212.69
2022-11-03T06:14:24.008Z,101213.47
2022-11-03T06:16:58.134Z,101205.63
2022-11-03T06:19:34.358Z,101199.09
2022-11-03T06:22:13.942Z,101204.84
2022-11-03T06:24:44.145Z,101207.41
2022-11-03T06:27:17.775Z,101203.63
2022-11-03T06:29:52.549Z,101195.72
2022-11-03T06:32:21.768Z,101203.75
2022-11-03T06:34:55.265Z,101201.09
2022-11-03T06:37:28.123Z,101200.91
2022-11-03T06:40:31.920Z,101192.69
2022-11-03T06:43:02.399Z,101187.88
2022-11-03T06:45:32.091Z,101179.75
2022-11-03T06:48:04.894Z,101171.34
2022-11-03T06:50:44.600Z,101177.75
2022-11-03T06:53:26.516Z,101185.59
2022-11-03T06:55:57.206Z,101178.78
2022-11-03T06:58:32.077Z,101178.25
2022-11-03T07:01:17.827Z,101169.03
2022-11-03T07:03:47.952Z,101175.25
2022-11-03T07:06:24.993Z,101168.69
2022-11-03T07:08:58.018Z,101169.63
2022-11-03T07:11:30.284Z,101166.97
2022-11-03T07:14:05.286Z,101163.53
2022-11-03T07:16:38.927Z,101163.69
2022-11-03T07:19:19.427Z,101161.69
2022-11-03T07:21:53.030Z,101150.16
2022-11-03T07:24:27.200Z,101159.81
2022-11-03T07:27:01.872Z,101157.53
2022-11-03T07:29:33.372Z,101164.81
2022-11-03T07:32:02.746Z,101157.72
2022-11-03T07:34:35.255Z,101158.00
2022-11-03T07:37:05.822Z,101154.59
2022-11-03T07:39:39.339Z,101157.31
2022-11-03T07:42:17.804Z,101151.78
2022-11-03T07:44:46.843Z,101138.78
2022-11-03T07:47:21.037Z,101145.09
2022-11-03T07:49:50.521Z,101148.16
2022-11-03T07:52:25.779Z,101139.75
2022-11-03T07:54:58.531Z,101145.28
2022-11-03T07:57:32.370Z,101136.94
2022-11-03T08:00:10.352Z,101131.66
2022-11-03T08:02:48.966Z,101131.41
2022-11-03T08:07:56.108Z,101124.81
2022-11-03T08:10:25.099Z,101114.28
2022-11-03T08:12:54.935Z,101112.06
2022-11-03T08:15:24.138Z,101117.22
2022-11-03T08:17:56.125Z,101104.19
2022-11-03T08:20:25.547Z,101100.78
2022-11-03T08:25:44.950Z,101105.53
2022-11-03T08:28:14.332Z,101102.28
2022-11-03T08:30:43.925Z,101098.38
2022-11-03T08:33:12.961Z,101095.97
2022-11-03T08:35:42.378Z,101096.66
2022-11-03T08:38:13.124Z,101085.13
2022-11-03T08:40:44.714Z,101086.19
2022-11-03T08:43:13.998Z,101084.28
2022-11-03T08:45:43.295Z,101087.59
2022-11-03T08:48:12.431Z,101070.72
2022-11-03T08:50:41.710Z,101077.72
2022-11-03T08:53:12.345Z,101063.56
2022-11-03T08:55:41.380Z,101065.88
2022-11-03T08:58:10.620Z,101068.38
2022-11-03T09:00:41.178Z,101059.69
2022-11-03T09:03:10.802Z,101047.97
2022-11-03T09:05:39.939Z,101048.94
2022-11-03T09:11:00.176Z,101048.69
2022-11-03T09:13:33.886Z,101034.16
2022-11-03T09:16:03.985Z,101016.84
2022-11-03T09:18:34.333Z,101011.06
2022-11-03T09:21:03.539Z,101021.16
2022-11-03T09:23:35.251Z,101010.31
2022-11-03T09:26:10.463Z,101015.69
2022-11-03T09:28:59.383Z,101017.69
2022-11-03T09:31:30.638Z,101011.84
2022-11-03T09:37:06.376Z,101009.63
2022-11-03T09:39:36.180Z,101010.84
2022-11-03T09:42:08.804Z,100997.03
2022-11-03T09:44:40.343Z,100989.56
2022-11-03T09:47:17.407Z,100997.75
2022-11-03T09:49:46.511Z,100982.03
2022-11-03T09:52:24.192Z,100973.22
2022-11-03T09:54:59.004Z,100968.88
2022-11-03T09:57:30.225Z,100960.28
2022-11-03T10:00:02.607Z,100957.03
2022-11-03T10:02:34.135Z,100959.81
2022-11-03T10:05:09.811Z,100961.31
2022-11-03T10:07:40.099Z,100957.97
2022-11-03T10:10:18.452Z,100954.03
2022-11-03T10:12:52.436Z,100940.91
2022-11-03T10:15:24.025Z,100942.19
2022-11-03T10:17:53.889Z,100936.16
2022-11-03T10:20:24.973Z,100923.75
2022-11-03T10:22:56.754Z,100930.41
2022-11-03T10:25:37.371Z,100932.56
2022-11-03T10:28:21.738Z,100929.03
2022-11-03T10:31:12.967Z,100932.78
2022-11-03T10:33:51.973Z,100930.50
2022-11-03T10:36:27.532Z,100931.28
2022-11-03T10:38:57.352Z,100933.34
2022-11-03T10:41:28.832Z,100933.50
2022-11-03T10:44:20.846Z,100925.72
2022-11-03T10:47:00.421Z,100931.50
2022-11-03T10:49:32.376Z,100922.97
2022-11-03T10:52:20.389Z,100924.81
2022-11-03T10:54:50.044Z,100926.22
2022-11-03T10:57:20.218Z,100918.69
2022-11-03T10:59:54.378Z,100910.59
2022-11-03T11:02:27.523Z,100906.81
2022-11-03T11:05:01.450Z,100910.97
2022-11-03T11:07:38.146Z,100904.38
2022-11-03T11:10:18.171Z,100907.50
2022-11-03T11:13:29.225Z,100892.75
2022-11-03T11:16:01.857Z,100891.28
2022-11-03T11:19:03.856Z,100881.25
2022-11-03T11:22:04.098Z,100877.09
2022-11-03T11:24:59.865Z,100873.16
2022-11-03T11:28:19.840Z,100871.56
2022-11-03T11:31:41.504Z,100859.09
2022-11-03T11:34:41.599Z,100862.63
2022-11-03T11:37:36.917Z,100852.81
2022-11-03T11:40:14.942Z,100847.38
2022-11-03T11:43:27.426Z,100838.19
2022-11-03T11:46:41.560Z,100818.06
2022-11-03T11:49:20.502Z,100821.63
2022-11-03T11:51:49.999Z,100813.66
2022-11-03T11:54:22.525Z,100814.97
2022-11-03T11:56:52.525Z,100796.72
2022-11-03T11:59:26.176Z,100785.03
2022-11-03T12:01:59.213Z,100779.00
2022-11-03T12:04:33.561Z,100776.94
2022-11-03T12:07:03.304Z,100769.25
2022-11-03T12:09:32.267Z,100773.69
2022-11-03T12:12:08.582Z,100778.56
2022-11-03T12:14:39.238Z,100778.06
2022-11-03T12:17:35.770Z,100779.72
2022-11-03T12:20:37.651Z,100782.28
2022-11-03T12:23:06.651Z,100776.44
2022-11-03T12:25:40.586Z,100765.50
2022-11-03T12:28:09.638Z,100760.41
2022-11-03T12:30:40.159Z,100763.25
2022-11-03T12:33:11.093Z,100765.53
2022-11-03T12:35:40.177Z,100771.06
2022-11-03T12:38:09.800Z,100766.22
2022-11-03T12:40:38.646Z,100762.19
2022-11-03T12:43:07.793Z,100763.91
2022-11-03T12:45:37.189Z,100760.38
2022-11-03T12:48:07.245Z,100759.19
2022-11-03T12:50:39.413Z,100747.56
2022-11-03T12:53:08.908Z,100756.13
2022-11-03T12:55:42.126Z,100757.31
2022-11-03T12:58:14.323Z,100752.53
2022-11-03T13:00:48.059Z,100759.66
2022-11-03T13:03:23.084Z,100749.44
2022-11-03T13:05:53.641Z,100738.34
2022-11-03T13:08:22.992Z,100742.69
2022-11-03T13:10:52.085Z,100737.31
2022-11-03T13:13:21.410Z,100737.66
2022-11-03T13:15:50.676Z,100741.75
2022-11-03T13:18:20.147Z,100721.34
2022-11-03T13:20:49.168Z,100726.44
2022-11-03T13:23:22.975Z,100720.34
2022-11-03T13:25:52.134Z,100718.00
2022-11-03T13:28:21.224Z,100718.72
2022-11-03T13:30:50.399Z,100725.09
2022-11-03T13:33:19.380Z,100714.00
2022-11-03T13:35:48.398Z,100712.75
2022-11-03T13:38:19.129Z,100719.13
2022-11-03T13:40:57.229Z,100710.66
2022-11-03T13:43:27.610Z,100710.06
2022-11-03T13:45:58.763Z,100706.50
2022-11-03T13:51:18.622Z,100699.81
2022-11-03T13:59:28.140Z,100695.13
2022-11-03T14:04:46.886Z,100684.53
2022-11-03T14:07:15.839Z,100685.81
2022-11-03T14:09:46.237Z,100678.53
2022-11-03T14:12:34.770Z,100682.75
2022-11-03T14:15:07.925Z,100678.19
2022-11-03T14:17:37.372Z,100680.72
2022-11-03T14:20:12.358Z,100676.44
2022-11-03T14:22:42.071Z,100671.59
2022-11-03T14:25:12.506Z,100670.88
2022-11-03T14:27:41.588Z,100660.84
2022-11-03T14:30:13.288Z,100658.56
2022-11-03T14:32:42.188Z,100651.22
2022-11-03T14:35:11.756Z,100652.56
2022-11-03T14:37:40.956Z,100654.56
2022-11-03T14:40:34.155Z,100650.69
2022-11-03T14:43:02.301Z,100640.34
2022-11-03T14:45:31.254Z,100646.56
2022-11-03T15:40:10.052Z,100592.28
2022-11-03T15:42:38.849Z,100595.31
2022-11-03T15:45:10.131Z,100590.78
2022-11-03T15:47:39.270Z,100581.19
2022-11-03T15:50:09.544Z,100584.22
2022-11-03T15:52:39.264Z,100582.78
2022-11-03T15:55:11.210Z,100573.75
2022-11-03T15:57:40.047Z,100562.56
2022-11-03T16:00:12.574Z,100564.03
2022-11-03T16:02:42.475Z,100555.97
2022-11-03T16:05:12.452Z,100556.00
2022-11-03T16:07:41.667Z,100549.16
2022-11-03T16:10:12.246Z,100538.72
2022-11-03T16:12:52.608Z,100540.91
2022-11-03T16:15:21.563Z,100536.75
2022-11-03T16:17:50.390Z,100528.63
2022-11-03T16:20:20.620Z,100519.72
2022-11-03T16:22:49.533Z,100524.84
2022-11-03T16:25:21.490Z,100526.91
2022-11-03T16:27:50.627Z,100512.16
2022-11-03T16:30:19.660Z,100512.19
2022-11-03T16:32:48.491Z,100519.97
2022-11-03T16:35:17.387Z,100513.38
2022-11-03T16:37:46.209Z,100511.94
2022-11-03T16:40:19.333Z,100513.41
2022-11-03T16:42:50.248Z,100516.81
2022-11-03T16:45:21.858Z,100508.03
2022-11-03T16:47:52.316Z,100498.78
2022-11-03T16:50:21.838Z,100500.09
2022-11-03T16:52:51.993Z,100493.88
2022-11-03T16:55:21.603Z,100481.47
2022-11-03T16:57:51.718Z,100484.38
2022-11-03T17:00:24.198Z,100467.72
2022-11-03T17:02:53.399Z,100462.69
2022-11-03T17:05:22.803Z,100463.28
2022-11-03T17:07:54.503Z,100461.50
2022-11-03T17:10:23.914Z,100452.28
2022-11-03T17:12:54.329Z,100454.22
2022-11-03T17:15:23.907Z,100452.50
2022-11-03T17:17:52.903Z,100440.06
2022-11-03T17:20:21.672Z,100427.19
2022-11-03T17:22:50.600Z,100433.88
2022-11-03T17:25:19.606Z,100428.91
2022-11-03T17:27:55.418Z,100424.75
2022-11-03T17:30:27.736Z,100426.72
2022-11-03T17:32:59.362Z,100426.47
2022-11-03T17:35:39.261Z,100414.91
2022-11-03T17:38:14.075Z,100412.34
2022-11-03T17:40:45.222Z,100413.06
2022-11-03T17:43:23.007Z,100399.69
2022-11-03T17:45:52.394Z,100404.41
2022-11-03T17:48:22.864Z,100393.69
2022-11-03T17:50:57.174Z,100376.06
2022-11-03T17:53:31.384Z,100369.00
2022-11-03T17:56:29.005Z,100380.94
2022-11-03T17:58:53.922Z,100378.00
2022-11-03T18:01:27.780Z,100365.34
2022-11-03T18:03:57.258Z,100375.84
2022-11-03T18:06:26.258Z,100386.78
2022-11-03T18:08:55.145Z,100377.06
2022-11-03T18:11:49.213Z,100374.97
2022-11-03T18:14:20.768Z,100370.47
2022-11-03T18:16:51.494Z,100367.81
2022-11-03T18:19:20.811Z,100366.06
2022-11-03T18:21:50.140Z,100361.22
2022-11-03T18:24:21.899Z,100352.19
2022-11-03T18:26:52.083Z,100343.78
2022-11-03T18:29:22.552Z,100345.50
2022-11-03T18:31:51.563Z,100345.38
2022-11-03T18:34:25.491Z,100329.66
2022-11-03T18:36:56.025Z,100318.47
2022-11-03T18:39:28.147Z,100309.31
2022-11-03T18:41:57.611Z,100316.38
2022-11-03T18:44:30.293Z,100312.94
2022-11-03T18:47:00.377Z,100296.53
2022-11-03T18:49:33.405Z,100289.84
2022-11-03T18:52:05.810Z,100279.25
2022-11-03T18:54:36.330Z,100258.91
2022-11-03T18:57:05.504Z,100262.38
2022-11-03T18:59:40.576Z,100260.44
2022-11-03T19:02:19.214Z,100265.84
2022-11-03T19:04:49.064Z,100264.34
2022-11-03T19:07:26.423Z,100258.66
2022-11-03T19:09:55.283Z,100264.59
2022-11-03T19:12:24.243Z,100262.06
2022-11-03T19:14:58.057Z,100268.97
2022-11-03T19:17:27.445Z,100258.16
2022-11-03T19:19:56.810Z,100262.66
2022-11-03T19:22:26.518Z,100254.63
2022-11-03T19:24:55.348Z,100257.41
2022-11-03T19:27:27.793Z,100241.75
2022-11-03T19:30:00.643Z,100242.81
2022-11-03T19:32:39.842Z,100243.84
2022-11-03T19:35:18.418Z,100244.44
2022-11-03T19:37:49.411Z,100236.16
2022-11-03T19:40:21.507Z,100230.69
2022-11-03T19:42:49.303Z,100227.53
2022-11-03T19:45:23.702Z,100217.06
2022-11-03T19:50:49.931Z,100213.75
2022-11-03T19:53:24.209Z,100207.47
2022-11-03T19:55:53.849Z,100197.28
2022-11-03T19:58:24.997Z,100193.38
2022-11-03T20:00:56.325Z,100202.50
2022-11-03T20:03:25.751Z,100203.09
2022-11-03T20:05:58.164Z,100197.63
2022-11-03T20:08:28.742Z,100200.53
2022-11-03T20:10:57.477Z,100195.31
2022-11-03T20:13:31.429Z,100202.84
2022-11-03T20:16:01.851Z,100198.44
2022-11-03T20:18:31.021Z,100191.66
2022-11-03T20:21:00.509Z,100181.41
2022-11-03T20:23:32.448Z,100175.69
2022-11-03T20:26:04.476Z,100181.69
2022-11-03T20:28:38.440Z,100182.53
2022-11-03T20:31:08.854Z,100167.84
2022-11-03T20:33:37.975Z,100172.69
2022-11-03T20:36:07.853Z,100177.56
2022-11-03T20:38:38.401Z,100160.78
2022-11-03T20:41:16.477Z,100155.31
2022-11-03T20:43:48.477Z,100153.78
2022-11-03T20:46:29.191Z,100151.94
2022-11-03T20:48:58.982Z,100137.25
2022-11-03T20:51:33.943Z,100138.56
2022-11-03T20:54:06.182Z,100127.56
2022-11-03T20:56:35.686Z,100130.22
2022-11-03T20:59:04.580Z,100122.22
2022-11-03T21:01:36.244Z,100125.22
2022-11-03T21:04:09.809Z,100117.34
2022-11-03T21:06:39.010Z,100110.78
2022-11-03T21:09:13.207Z,100118.44
2022-11-03T21:11:43.579Z,100118.06
2022-11-03T21:14:20.657Z,100121.69
2022-11-03T21:17:08.297Z,100119.38
2022-11-03T21:19:55.129Z,100111.25
2022-11-03T21:25:17.769Z,100110.03
2022-11-03T21:27:47.670Z,100107.72
2022-11-03T21:30:18.591Z,100105.31
2022-11-03T21:32:49.120Z,100088.38
2022-11-03T21:35:20.567Z,100087.63
2022-11-03T21:37:49.585Z,100085.19
2022-11-03T21:40:19.171Z,100078.72
2022-11-03T21:43:05.560Z,100075.56
2022-11-03T21:45:34.797Z,100075.16
2022-11-03T21:48:23.166Z,100075.34
2022-11-03T21:50:52.345Z,100082.66
2022-11-03T21:53:21.206Z,100077.28
2022-11-03T21:55:50.465Z,100074.50
2022-11-03T21:58:19.429Z,100073.53
2022-11-03T22:00:48.397Z,100068.53
2022-11-03T22:03:18.753Z,100076.25
2022-11-03T22:05:47.605Z,100071.44
2022-11-03T22:08:16.372Z,100081.28
2022-11-03T22:10:45.216Z,100070.66
2022-11-03T22:13:14.074Z,100068.09
2022-11-03T22:16:00.295Z,100060.53
2022-11-03T22:18:30.544Z,100065.31
2022-11-03T22:21:17.322Z,100063.59
2022-11-03T22:24:09.052Z,100063.31
2022-11-03T22:26:55.437Z,100048.44
2022-11-03T22:29:42.026Z,100040.53
2022-11-03T22:32:15.958Z,100035.34
2022-11-03T22:35:05.480Z,100039.88
2022-11-03T22:40:19.587Z,100037.06
2022-11-03T22:43:06.218Z,100033.44
2022-11-03T22:45:54.720Z,100017.94
2022-11-03T22:48:26.337Z,100015.94
2022-11-03T22:51:05.363Z,100003.25
2022-11-03T22:53:54.281Z,100004.06
2022-11-03T22:56:25.705Z,100002.06
2022-11-03T22:58:54.825Z,99984.88
2022-11-03T23:01:26.910Z,99995.50
2022-11-03T23:03:56.519Z,99983.34
2022-11-03T23:06:29.911Z,99979.69
2022-11-03T23:08:59.293Z,99988.84
2022-11-03T23:11:32.611Z,99980.94
2022-11-03T23:14:04.679Z,99980.88
2022-11-03T23:16:36.932Z,99984.59
2022-11-03T23:19:25.406Z,99995.91
2022-11-03T23:21:56.396Z,99989.38
2022-11-03T23:24:45.362Z,99983.34
2022-11-03T23:27:15.734Z,99987.72
2022-11-03T23:29:44.503Z,99980.94
2022-11-03T23:32:13.709Z,99972.38
2022-11-03T23:34:42.547Z,99969.31
2022-11-03T23:37:12.838Z,99946.91
2022-11-03T23:39:41.711Z,99957.56
2022-11-03T23:42:10.774Z,99956.13
2022-11-03T23:44:56.839Z,99968.81
2022-11-03T23:47:43.151Z,99960.50
2022-11-03T23:50:11.896Z,99969.38
2022-11-03T23:52:42.216Z,99973.47
2022-11-03T23:55:11.404Z,99967.22
2022-11-03T23:57:57.830Z,99963.56
